createdAt,value
2022-10-25T00:02:20.575Z,15.36
2022-10-25T00:04:47.458Z,15.44
2022-10-25T00:07:14.068Z,15.67
2022-10-25T00:09:41.167Z,15.86
2022-10-25T00:12:08.081Z,15.10
2022-10-25T00:14:35.289Z,15.43
2022-10-25T00:17:01.763Z,15.05
2022-10-25T00:19:28.222Z,15.25
2022-10-25T00:21:54.783Z,15.61
2022-10-25T00:24:21.230Z,15.76
2022-10-25T00:26:47.709Z,15.43
2022-10-25T00:29:14.324Z,15.58
2022-10-25T00:31:40.990Z,15.93
2022-10-25T00:34:07.591Z,15.52
2022-10-25T00:36:34.042Z,15.60
2022-10-25T00:39:00.615Z,15.75
2022-10-25T00:41:29.690Z,15.55
2022-10-25T00:44:17.810Z,15.73
2022-10-25T00:46:45.178Z,15.33
2022-10-25T00:49:18.753Z,15.89
2022-10-25T00:51:56.354Z,15.79
2022-10-25T00:54:34.257Z,15.46
2022-10-25T00:57:10.131Z,15.94
2022-10-25T00:59:36.825Z,16.02
2022-10-25T01:02:03.383Z,15.76
2022-10-25T01:04:31.520Z,15.54
2022-10-25T01:06:58.586Z,15.81
2022-10-25T01:09:27.547Z,15.73
2022-10-25T01:11:54.298Z,16.04
2022-10-25T01:14:21.070Z,15.75
2022-10-25T01:16:56.666Z,15.80
2022-10-25T01:19:44.758Z,15.76
2022-10-25T01:22:23.318Z,15.55
2022-10-25T01:25:06.154Z,15.93
2022-10-25T01:27:57.723Z,15.92
2022-10-25T01:30:26.382Z,16.00
2022-10-25T01:33:22.258Z,15.99
2022-10-25T01:36:11.122Z,15.98
2022-10-25T01:38:49.789Z,15.76
2022-10-25T01:41:38.889Z,15.52
2022-10-25T01:44:22.277Z,16.07
2022-10-25T01:46:59.551Z,16.42
2022-10-25T01:49:30.223Z,16.63
2022-10-25T01:51:56.618Z,16.35
2022-10-25T01:54:25.249Z,15.76
2022-10-25T01:57:00.796Z,16.38
2022-10-25T02:00:00.384Z,16.33
2022-10-25T02:02:40.998Z,16.31
2022-10-25T02:05:20.991Z,16.09
2022-10-25T02:07:56.495Z,16.34
2022-10-25T02:10:27.669Z,16.01
2022-10-25T02:13:03.694Z,16.14
2022-10-25T02:15:48.868Z,16.54
2022-10-25T02:18:19.517Z,16.30
2022-10-25T02:20:47.575Z,16.51
2022-10-25T02:23:14.827Z,16.61
2022-10-25T02:25:42.085Z,16.20
2022-10-25T02:28:10.903Z,16.08
2022-10-25T02:30:38.715Z,16.11
2022-10-25T02:33:05.321Z,16.38
2022-10-25T02:35:31.974Z,16.09
2022-10-25T02:37:58.480Z,16.37
2022-10-25T02:40:25.244Z,16.60
2022-10-25T02:46:32.618Z,16.76
2022-10-25T02:48:59.147Z,16.64
2022-10-25T02:51:25.622Z,16.45
2022-10-25T02:53:52.111Z,16.62
2022-10-25T02:56:21.162Z,16.98
2022-10-25T02:58:49.249Z,16.64
2022-10-25T03:01:17.732Z,16.33
2022-10-25T03:03:45.143Z,16.98
2022-10-25T03:06:12.438Z,16.77
2022-10-25T03:08:40.373Z,16.65
2022-10-25T03:11:07.827Z,16.45
2022-10-25T03:13:35.055Z,16.70
2022-10-25T03:16:01.689Z,16.20
2022-10-25T03:18:28.178Z,16.60
2022-10-25T03:21:01.698Z,16.78
2022-10-25T03:23:28.827Z,16.62
2022-10-25T03:25:57.210Z,16.66
2022-10-25T03:28:24.281Z,16.59
2022-10-25T03:30:50.970Z,16.36
2022-10-25T03:33:17.814Z,16.36
2022-10-25T03:35:44.286Z,16.98
2022-10-25T03:38:10.966Z,16.61
2022-10-25T03:40:37.513Z,16.44
2022-10-25T03:43:04.046Z,16.89
2022-10-25T03:45:30.578Z,16.58
2022-10-25T03:47:57.019Z,16.54
2022-10-25T03:50:23.498Z,16.52
2022-10-25T03:52:49.959Z,16.44
2022-10-25T03:55:16.572Z,16.24
2022-10-25T03:57:43.136Z,16.30
2022-10-25T04:00:10.106Z,16.09
2022-10-25T04:02:36.586Z,16.35
2022-10-25T04:05:03.186Z,16.19
2022-10-25T04:07:29.669Z,16.43
2022-10-25T04:09:56.098Z,16.67
2022-10-25T04:12:22.577Z,16.53
2022-10-25T04:14:49.091Z,16.19
2022-10-25T04:17:15.615Z,16.00
2022-10-25T04:19:42.124Z,16.36
2022-10-25T04:22:08.755Z,15.95
2022-10-25T04:24:35.231Z,15.89
2022-10-25T04:27:01.700Z,16.11
2022-10-25T04:29:28.211Z,16.04
2022-10-25T04:31:54.688Z,16.34
2022-10-25T04:34:21.155Z,15.99
2022-10-25T04:36:47.932Z,16.62
2022-10-25T04:39:15.164Z,16.32
2022-10-25T04:41:41.713Z,16.27
2022-10-25T04:44:08.618Z,16.38
2022-10-25T04:46:35.098Z,16.14
2022-10-25T04:49:01.563Z,16.17
2022-10-25T04:51:28.030Z,15.95
2022-10-25T04:53:55.241Z,15.94
2022-10-25T04:56:22.357Z,16.00
2022-10-25T04:58:48.855Z,15.99
2022-10-25T05:01:17.533Z,16.30
2022-10-25T05:03:44.055Z,15.97
2022-10-25T05:06:14.319Z,16.05
2022-10-25T05:08:42.843Z,16.07
2022-10-25T05:11:10.660Z,15.89
2022-10-25T05:13:39.250Z,16.07
2022-10-25T05:16:06.458Z,15.97
2022-10-25T05:18:34.384Z,15.78
2022-10-25T05:21:06.745Z,15.82
2022-10-25T05:23:34.763Z,15.78
2022-10-25T05:26:10.123Z,16.08
2022-10-25T05:28:38.211Z,16.00
2022-10-25T05:33:40.952Z,15.97
2022-10-25T05:36:07.816Z,16.05
2022-10-25T05:38:37.042Z,16.04
2022-10-25T05:41:05.002Z,16.24
2022-10-25T05:43:31.668Z,16.25
2022-10-25T05:46:06.702Z,16.39
2022-10-25T05:48:34.253Z,16.71
2022-10-25T05:51:32.658Z,16.68
2022-10-25T05:54:04.746Z,16.77
2022-10-25T05:56:32.390Z,16.35
2022-10-25T05:59:02.545Z,16.44
2022-10-25T06:01:29.191Z,16.35
2022-10-25T06:03:55.831Z,16.14
2022-10-25T06:06:23.204Z,16.24
2022-10-25T06:08:49.867Z,16.31
2022-10-25T06:11:18.651Z,16.60
2022-10-25T06:13:45.684Z,17.05
2022-10-25T06:16:14.961Z,16.88
2022-10-25T06:18:42.096Z,16.43
2022-10-25T06:21:13.678Z,16.47
2022-10-25T06:23:40.943Z,16.88
2022-10-25T06:26:10.677Z,16.92
2022-10-25T06:28:37.754Z,16.57
2022-10-25T06:31:06.810Z,16.09
2022-10-25T06:33:33.887Z,16.56
2022-10-25T06:36:01.969Z,17.17
2022-10-25T06:38:29.328Z,16.81
2022-10-25T06:41:00.114Z,17.17
2022-10-25T06:43:27.033Z,16.83
2022-10-25T06:45:53.846Z,16.32
2022-10-25T06:48:20.845Z,16.40
2022-10-25T06:50:49.976Z,16.47
2022-10-25T06:53:18.621Z,16.79
2022-10-25T06:55:47.099Z,16.61
2022-10-25T06:58:13.601Z,16.69
2022-10-25T07:00:40.100Z,16.41
2022-10-25T07:03:06.524Z,16.42
2022-10-25T07:05:32.988Z,16.35
2022-10-25T07:07:59.461Z,15.96
2022-10-25T07:10:25.992Z,16.18
2022-10-25T07:12:52.440Z,16.60
2022-10-25T07:17:46.769Z,17.34
2022-10-25T07:20:13.390Z,16.51
2022-10-25T07:22:39.895Z,16.06
2022-10-25T07:25:06.523Z,16.33
2022-10-25T07:27:33.673Z,16.34
2022-10-25T07:30:00.153Z,16.80
2022-10-25T07:32:26.663Z,16.70
2022-10-25T07:34:53.174Z,17.03
2022-10-25T07:37:19.661Z,16.54
2022-10-25T07:39:46.307Z,17.02
2022-10-25T07:42:12.749Z,16.75
2022-10-25T07:44:39.227Z,16.97
2022-10-25T07:47:05.739Z,17.31
2022-10-25T07:49:32.175Z,16.84
2022-10-25T07:51:58.623Z,17.25
2022-10-25T07:54:25.069Z,17.44
2022-10-25T07:56:51.537Z,16.98
2022-10-25T07:59:18.073Z,16.92
2022-10-25T08:01:44.661Z,17.69
2022-10-25T08:04:11.074Z,16.91
2022-10-25T08:06:37.701Z,17.13
2022-10-25T08:09:14.237Z,16.92
2022-10-25T08:11:47.071Z,16.78
2022-10-25T08:14:13.686Z,16.96
2022-10-25T08:16:40.258Z,16.63
2022-10-25T08:19:06.940Z,17.16
2022-10-25T08:21:33.755Z,17.69
2022-10-25T08:24:00.672Z,17.85
2022-10-25T08:26:30.173Z,18.56
2022-10-25T08:28:58.405Z,18.21
2022-10-25T08:31:24.891Z,18.90
2022-10-25T08:33:51.304Z,19.18
2022-10-25T08:36:17.771Z,18.38
2022-10-25T08:38:44.251Z,17.49
2022-10-25T08:41:19.605Z,18.23
2022-10-25T08:44:03.044Z,17.69
2022-10-25T08:47:05.952Z,18.42
2022-10-25T08:50:02.348Z,17.41
2022-10-25T08:52:36.180Z,18.32
2022-10-25T08:55:05.891Z,18.40
2022-10-25T08:57:34.465Z,19.05
2022-10-25T09:00:07.259Z,18.74
2022-10-25T09:02:48.764Z,19.04
2022-10-25T09:05:47.317Z,19.46
2022-10-25T09:08:32.586Z,18.76
2022-10-25T09:10:59.041Z,19.15
2022-10-25T09:13:40.825Z,19.39
2022-10-25T09:16:36.630Z,19.70
2022-10-25T09:19:07.629Z,19.43
2022-10-25T09:21:44.616Z,18.94
2022-10-25T09:24:21.008Z,19.60
2022-10-25T09:26:59.979Z,19.53
2022-10-25T09:29:32.291Z,20.02
2022-10-25T09:32:00.027Z,20.19
2022-10-25T09:34:35.537Z,19.41
2022-10-25T09:37:30.070Z,20.13
2022-10-25T09:40:00.019Z,20.03
2022-10-25T09:42:40.190Z,19.76
2022-10-25T09:45:15.494Z,20.82
2022-10-25T09:47:58.030Z,20.48
2022-10-25T09:50:28.137Z,20.27
2022-10-25T09:53:09.762Z,19.91
2022-10-25T09:55:48.346Z,19.01
2022-10-25T09:58:21.364Z,19.68
2022-10-25T10:00:48.286Z,20.48
2022-10-25T10:03:15.083Z,20.72
2022-10-25T10:05:55.075Z,20.03
2022-10-25T10:08:21.939Z,19.56
2022-10-25T10:10:49.694Z,19.56
2022-10-25T10:13:31.406Z,18.56
2022-10-25T10:16:01.808Z,18.17
2022-10-25T10:18:33.218Z,18.71
2022-10-25T10:21:01.703Z,17.67
2022-10-25T10:23:31.030Z,18.31
2022-10-25T10:26:01.830Z,18.64
2022-10-25T10:28:28.318Z,18.80
2022-10-25T10:30:57.216Z,21.39
2022-10-25T10:33:26.586Z,22.34
2022-10-25T10:35:54.159Z,23.77
2022-10-25T10:38:28.199Z,23.03
2022-10-25T10:41:13.772Z,22.64
2022-10-25T10:43:40.618Z,21.58
2022-10-25T10:46:14.801Z,24.07
2022-10-25T10:48:44.017Z,27.68
2022-10-25T10:51:38.769Z,33.37
2022-10-25T10:54:20.482Z,33.75
2022-10-25T10:56:54.451Z,32.28
2022-10-25T10:59:33.146Z,30.13
2022-10-25T11:02:20.060Z,24.10
2022-10-25T11:04:48.596Z,26.93
2022-10-25T11:07:32.322Z,29.91
2022-10-25T11:10:17.147Z,29.96
2022-10-25T11:12:44.099Z,27.56
2022-10-25T11:15:14.581Z,25.74
2022-10-25T11:17:54.268Z,22.96
2022-10-25T11:20:34.308Z,23.20
2022-10-25T11:23:26.961Z,25.28
2022-10-25T11:25:59.350Z,24.47
2022-10-25T11:28:44.065Z,25.30
2022-10-25T11:31:20.137Z,25.17
2022-10-25T11:33:52.769Z,27.17
2022-10-25T11:36:24.986Z,28.60
2022-10-25T11:39:02.162Z,27.42
2022-10-25T11:41:37.602Z,29.72
2022-10-25T11:44:19.184Z,29.08
2022-10-25T11:46:51.620Z,31.93
2022-10-25T11:49:44.724Z,31.11
2022-10-25T11:52:39.166Z,30.06
2022-10-25T11:55:24.762Z,32.67
2022-10-25T11:58:04.283Z,32.55
2022-10-25T12:00:56.311Z,33.04
2022-10-25T12:03:42.935Z,28.85
2022-10-25T12:06:16.408Z,31.76
2022-10-25T12:08:46.990Z,30.44
2022-10-25T12:11:20.295Z,28.32
2022-10-25T12:13:50.479Z,26.60
2022-10-25T12:16:19.384Z,25.59
2022-10-25T12:19:00.695Z,23.48
2022-10-25T12:21:31.471Z,23.17
2022-10-25T12:24:00.316Z,23.99
2022-10-25T12:26:30.014Z,23.16
2022-10-25T12:28:59.994Z,22.15
2022-10-25T12:31:29.464Z,21.51
2022-10-25T12:34:03.798Z,21.26
2022-10-25T12:36:38.636Z,21.57
2022-10-25T12:39:14.036Z,21.04
2022-10-25T12:41:44.473Z,20.67
2022-10-25T12:44:29.675Z,20.38
2022-10-25T12:47:05.349Z,20.67
2022-10-25T12:49:57.277Z,20.70
2022-10-25T12:52:24.088Z,21.01
2022-10-25T12:55:09.193Z,20.78
2022-10-25T12:57:44.726Z,20.97
2022-10-25T13:03:22.797Z,20.37
2022-10-25T13:06:01.329Z,20.88
2022-10-25T13:08:29.583Z,20.53
2022-10-25T13:11:01.915Z,21.17
2022-10-25T13:13:30.954Z,20.85
2022-10-25T13:16:01.747Z,21.18
2022-10-25T13:18:34.220Z,21.58
2022-10-25T13:21:02.049Z,20.59
2022-10-25T13:23:44.204Z,21.13
2022-10-25T13:26:13.094Z,20.61
2022-10-25T13:28:51.037Z,20.80
2022-10-25T13:31:35.900Z,20.86
2022-10-25T13:34:14.597Z,20.77
2022-10-25T13:36:58.060Z,20.53
2022-10-25T13:39:32.151Z,20.61
2022-10-25T13:42:09.564Z,20.96
2022-10-25T13:44:54.338Z,21.14
2022-10-25T13:47:59.214Z,21.04
2022-10-25T13:50:33.349Z,21.21
2022-10-25T13:53:05.719Z,20.81
2022-10-25T13:55:44.772Z,21.00
2022-10-25T13:58:31.875Z,20.38
2022-10-25T14:01:17.604Z,20.16
2022-10-25T14:03:50.078Z,19.84
2022-10-25T14:06:23.966Z,19.70
2022-10-25T14:08:58.575Z,19.82
2022-10-25T14:11:34.082Z,19.92
2022-10-25T14:14:22.238Z,20.15
2022-10-25T14:17:23.164Z,19.79
2022-10-25T14:19:57.490Z,20.19
2022-10-25T14:22:37.096Z,20.27
2022-10-25T14:25:12.897Z,20.12
2022-10-25T14:27:39.353Z,20.47
2022-10-25T14:30:24.337Z,20.11
2022-10-25T14:33:20.245Z,20.72
2022-10-25T14:35:49.504Z,21.37
2022-10-25T14:38:26.863Z,21.86
2022-10-25T14:40:58.356Z,21.07
2022-10-25T14:43:28.355Z,20.93
2022-10-25T14:46:10.456Z,21.26
2022-10-25T14:48:37.180Z,20.15
2022-10-25T14:51:06.531Z,20.35
2022-10-25T14:53:33.354Z,20.74
2022-10-25T14:56:01.850Z,20.55
2022-10-25T14:58:32.897Z,20.28
2022-10-25T15:01:01.817Z,20.09
2022-10-25T15:03:29.770Z,19.52
2022-10-25T15:05:58.877Z,19.92
2022-10-25T15:08:27.228Z,19.98
2022-10-25T15:11:08.086Z,20.30
2022-10-25T15:13:42.911Z,20.48
2022-10-25T15:16:31.447Z,20.72
2022-10-25T15:19:06.164Z,20.93
2022-10-25T15:21:50.478Z,20.45
2022-10-25T15:24:46.494Z,19.95
2022-10-25T15:27:26.603Z,20.63
2022-10-25T15:29:53.519Z,20.82
2022-10-25T15:32:22.151Z,21.00
2022-10-25T15:34:53.287Z,20.95
2022-10-25T15:37:21.349Z,20.84
2022-10-25T15:39:49.524Z,20.82
2022-10-25T15:42:16.611Z,20.92
2022-10-25T15:44:43.449Z,20.84
2022-10-25T15:47:27.966Z,20.66
2022-10-25T15:49:54.633Z,20.63
2022-10-25T15:52:21.636Z,19.96
2022-10-25T15:54:49.255Z,19.28
2022-10-25T15:57:16.690Z,19.63
2022-10-25T15:59:43.209Z,19.53
2022-10-25T16:02:26.289Z,19.37
2022-10-25T16:04:52.725Z,19.45
2022-10-25T16:07:19.257Z,19.62
2022-10-25T16:09:45.792Z,19.89
2022-10-25T16:12:18.753Z,19.72
2022-10-25T16:14:45.538Z,19.47
2022-10-25T16:17:13.374Z,19.67
2022-10-25T16:19:39.877Z,19.11
2022-10-25T16:22:06.500Z,19.37
2022-10-25T16:24:32.970Z,19.22
2022-10-25T16:27:01.162Z,19.35
2022-10-25T16:29:27.820Z,19.22
2022-10-25T16:31:54.292Z,19.12
2022-10-25T16:34:21.335Z,19.14
2022-10-25T16:36:48.647Z,18.93
2022-10-25T16:39:15.455Z,18.62
2022-10-25T16:41:43.777Z,18.42
2022-10-25T16:44:18.375Z,18.54
2022-10-25T16:46:45.280Z,17.94
2022-10-25T16:49:12.072Z,18.75
2022-10-25T16:51:39.846Z,18.65
2022-10-25T16:54:06.880Z,18.59
2022-10-25T16:56:33.613Z,18.34
2022-10-25T16:59:00.551Z,18.57
2022-10-25T17:01:29.430Z,18.29
2022-10-25T17:03:56.035Z,18.01
2022-10-25T17:06:40.333Z,18.38
2022-10-25T17:09:08.084Z,18.18
2022-10-25T17:11:34.582Z,18.56
2022-10-25T17:14:01.028Z,18.00
2022-10-25T17:16:27.502Z,18.49
2022-10-25T17:18:53.982Z,18.10
2022-10-25T17:21:20.626Z,18.23
2022-10-25T17:23:47.067Z,18.14
2022-10-25T17:26:13.922Z,18.18
2022-10-25T17:28:43.962Z,17.91
2022-10-25T17:31:12.943Z,18.06
2022-10-25T17:33:40.422Z,17.92
2022-10-25T17:36:09.597Z,17.75
2022-10-25T17:38:36.138Z,17.92
2022-10-25T17:41:02.926Z,17.79
2022-10-25T17:43:29.369Z,17.94
2022-10-25T17:46:00.968Z,18.05
2022-10-25T17:48:27.468Z,17.73
2022-10-25T17:50:54.080Z,17.89
2022-10-25T17:53:20.550Z,17.43
2022-10-25T17:55:49.391Z,17.64
2022-10-25T17:58:15.899Z,17.69
2022-10-25T18:00:42.327Z,17.73
2022-10-25T18:03:08.840Z,17.39
2022-10-25T18:05:38.355Z,17.43
2022-10-25T18:08:05.008Z,17.75
2022-10-25T18:10:35.104Z,17.26
2022-10-25T18:13:01.596Z,17.43
2022-10-25T18:15:29.178Z,17.51
2022-10-25T18:17:55.642Z,17.29
2022-10-25T18:20:25.159Z,17.39
2022-10-25T18:22:53.021Z,17.38
2022-10-25T18:25:19.901Z,17.17
2022-10-25T18:27:47.153Z,17.12
2022-10-25T18:30:14.006Z,17.46
2022-10-25T18:32:40.508Z,17.46
2022-10-25T18:35:07.600Z,17.11
2022-10-25T18:37:34.254Z,17.35
2022-10-25T18:40:00.713Z,17.24
2022-10-25T18:42:27.161Z,17.22
2022-10-25T18:44:55.392Z,17.14
2022-10-25T18:47:21.871Z,17.48
2022-10-25T18:49:48.874Z,17.44
2022-10-25T18:52:15.339Z,17.16
2022-10-25T18:54:41.815Z,17.14
2022-10-25T18:57:09.199Z,17.16
2022-10-25T18:59:35.665Z,17.08
2022-10-25T19:02:02.307Z,17.03
2022-10-25T19:04:29.006Z,17.15
2022-10-25T19:06:55.591Z,17.19
2022-10-25T19:09:22.317Z,17.24
2022-10-25T19:11:48.802Z,17.16
2022-10-25T19:14:15.348Z,17.16
2022-10-25T19:16:43.828Z,16.89
2022-10-25T19:19:11.925Z,17.06
2022-10-25T19:21:38.796Z,16.82
2022-10-25T19:24:05.748Z,17.08
2022-10-25T19:26:33.570Z,17.02
2022-10-25T19:29:01.011Z,17.06
2022-10-25T19:31:28.144Z,17.15
2022-10-25T19:33:58.316Z,16.91
2022-10-25T19:36:24.988Z,17.06
2022-10-25T19:38:51.676Z,16.76
2022-10-25T19:41:20.396Z,16.82
2022-10-25T19:43:47.619Z,17.11
2022-10-25T19:46:14.481Z,16.85
2022-10-25T19:48:41.411Z,17.13
2022-10-25T19:51:10.342Z,16.85
2022-10-25T19:53:37.184Z,17.06
2022-10-25T19:56:09.307Z,16.75
2022-10-25T19:58:36.436Z,16.97
2022-10-25T20:01:09.388Z,16.90
2022-10-25T20:03:37.593Z,16.91
2022-10-25T20:06:07.354Z,16.61
2022-10-25T20:08:34.958Z,16.71
2022-10-25T20:11:02.208Z,16.42
2022-10-25T20:13:28.838Z,16.65
2022-10-25T20:15:55.825Z,16.80
2022-10-25T20:18:24.283Z,16.76
2022-10-25T20:20:53.822Z,16.81
2022-10-25T20:23:20.524Z,16.70
2022-10-25T20:25:46.987Z,16.76
2022-10-25T20:28:13.848Z,16.55
2022-10-25T20:30:40.962Z,16.36
2022-10-25T20:33:11.116Z,16.48
2022-10-25T20:35:38.888Z,16.60
2022-10-25T20:38:06.141Z,16.56
2022-10-25T20:40:33.802Z,16.20
2022-10-25T20:43:00.910Z,16.17
2022-10-25T20:45:28.843Z,16.34
2022-10-25T20:47:56.374Z,16.26
2022-10-25T20:50:23.752Z,16.12
2022-10-25T20:53:09.196Z,16.00
2022-10-25T20:55:36.753Z,15.96
2022-10-25T20:58:03.267Z,16.09
2022-10-25T21:00:29.789Z,15.89
2022-10-25T21:02:56.239Z,15.83
2022-10-25T21:05:22.701Z,15.90
2022-10-25T21:07:49.497Z,16.05
2022-10-25T21:10:16.272Z,16.06
2022-10-25T21:12:42.783Z,16.00
2022-10-25T21:15:11.962Z,16.03
2022-10-25T21:17:39.050Z,16.10
2022-10-25T21:20:06.340Z,15.85
2022-10-25T21:22:32.946Z,15.87
2022-10-25T21:24:59.665Z,15.61
2022-10-25T21:27:26.128Z,15.99
2022-10-25T21:29:52.593Z,15.64
2022-10-25T21:32:19.463Z,15.93
2022-10-25T21:34:46.067Z,15.93
2022-10-25T21:37:13.344Z,15.96
2022-10-25T21:39:39.947Z,15.94
2022-10-25T21:42:06.499Z,15.59
2022-10-25T21:44:32.927Z,15.96
2022-10-25T21:46:59.476Z,15.69
2022-10-25T21:49:25.895Z,15.66
2022-10-25T21:51:52.382Z,15.93
2022-10-25T21:54:21.350Z,15.80
2022-10-25T21:56:48.560Z,15.93
2022-10-25T21:59:15.065Z,15.95
2022-10-25T22:01:41.622Z,15.93
2022-10-25T22:04:08.555Z,15.64
2022-10-25T22:06:35.822Z,15.70
2022-10-25T22:09:02.382Z,15.78
2022-10-25T22:11:31.224Z,15.62
2022-10-25T22:13:59.816Z,15.47
2022-10-25T22:16:27.097Z,15.69
2022-10-25T22:18:57.672Z,15.68
2022-10-25T22:21:25.246Z,15.71
2022-10-25T22:23:51.740Z,15.53
2022-10-25T22:26:20.229Z,15.70
2022-10-25T22:28:47.209Z,15.65
2022-10-25T22:31:16.092Z,15.41
2022-10-25T22:33:43.412Z,15.64
2022-10-25T22:36:15.644Z,15.66
2022-10-25T22:38:42.741Z,15.36
2022-10-25T22:41:17.292Z,15.44
2022-10-25T22:43:44.442Z,15.71
2022-10-25T22:46:17.298Z,15.61
2022-10-25T22:48:44.621Z,15.65
2022-10-25T22:51:11.955Z,15.62
2022-10-25T22:53:39.510Z,15.66
2022-10-25T22:56:12.616Z,15.47
2022-10-25T22:58:40.250Z,15.54
2022-10-25T23:01:12.516Z,15.59
2022-10-25T23:03:44.110Z,15.57
2022-10-25T23:06:12.862Z,15.22
2022-10-25T23:08:39.752Z,15.55
2022-10-25T23:11:09.286Z,15.29
2022-10-25T23:13:36.262Z,15.28
2022-10-25T23:16:03.643Z,15.34
2022-10-25T23:18:30.293Z,15.34
2022-10-25T23:20:58.577Z,15.20
2022-10-25T23:23:25.537Z,15.36
2022-10-25T23:25:52.374Z,15.28
2022-10-25T23:28:19.041Z,15.17
2022-10-25T23:30:45.566Z,15.32
2022-10-25T23:33:13.131Z,15.35
2022-10-25T23:35:41.239Z,15.35
2022-10-25T23:38:13.246Z,15.33
2022-10-25T23:40:40.580Z,15.33
2022-10-25T23:43:07.203Z,15.41
2022-10-25T23:45:33.795Z,15.52
2022-10-25T23:48:00.288Z,15.60
2022-10-25T23:50:26.780Z,15.75
2022-10-25T23:52:53.336Z,15.65
2022-10-25T23:55:19.998Z,15.78
2022-10-25T23:57:46.446Z,15.71
